map of KRZN home
KRZN - Airport
Location
City:  Siren, Wisconsin, United States
Name:Burnett County Airport
ICAO:KRZN
FAA LID:RZN

Details
Type:Airport (Airfield)
Use:Public/Civil
Latitude:4549'24"N (45.823464)
Longitude:9222'25"W (-92.373692)
Datum:WGS 1984
Elevation:989 ft (301 m)
Variation:0.70W (WMM2015 magnetic declination)
-0.06 annual change
Runways:2
Longest:5000 × 75 ft (1524 × 23 m), paved

Time
Time Zone:UTC-6 (DST-5)
Local Time:

Weather
METAR:KRZN 190935Z AUTO 00000KT 10SM CLR 00/M01 A2970 RMK AO2 T00001009

Related Locations
Nearby:
Farthest:YAUG: 10790 mi / 17365 km
Augusta [Augusta Airport], WA, AU

Find:

   beyond  
but within

Other Information
Maps:
NOTAMs:
Links:
Sources:

  
  • flag of United States
  • flag of Wisconsin
  

Sectional Chart

Flight Planning
at skyvector.com

Satellite Image

Google Maps Satellite view

 

Copyright © 2004-2018 Karl L. Swartz. All rights reserved.
The Great Circle Mapper name and logo are trademarks of the Great Circle Mapper.
All other trademarks mentioned herein belong to their respective owners.
Please see credits for attibutions and further copyright information.

  Follow gcmap on Facebook Follow gcmap on Twitter Follow gcmap on Google+ GCmap on LinkedIn

hCard Microformat

Geo Microformat